sensor_id;sensor_type;location;lat;lon;timestamp;P1;durP1;ratioP1;P2;durP2;ratioP2
5730;SDS011;2890;51.950;7.668;2023-06-24T00:01:31;12.47;;;11.27;;
5730;SDS011;2890;51.950;7.668;2023-06-24T00:04:00;12.57;;;11.43;;
5730;SDS011;2890;51.950;7.668;2023-06-24T00:06:26;14.13;;;12.63;;
5730;SDS011;2890;51.950;7.668;2023-06-24T00:08:53;11.90;;;10.90;;
5730;SDS011;2890;51.950;7.668;2023-06-24T00:11:25;12.53;;;11.33;;
5730;SDS011;2890;51.950;7.668;2023-06-24T00:13:52;13.00;;;11.90;;
5730;SDS011;2890;51.950;7.668;2023-06-24T00:16:18;12.20;;;11.10;;
5730;SDS011;2890;51.950;7.668;2023-06-24T00:18:51;12.40;;;11.40;;
5730;SDS011;2890;51.950;7.668;2023-06-24T00:21:19;12.40;;;11.17;;
5730;SDS011;2890;51.950;7.668;2023-06-24T00:23:45;11.90;;;11.10;;
5730;SDS011;2890;51.950;7.668;2023-06-24T00:26:14;12.63;;;11.53;;
5730;SDS011;2890;51.950;7.668;2023-06-24T00:28:41;12.40;;;11.40;;
5730;SDS011;2890;51.950;7.668;2023-06-24T00:31:07;13.73;;;12.43;;
5730;SDS011;2890;51.950;7.668;2023-06-24T00:33:36;14.67;;;13.27;;
5730;SDS011;2890;51.950;7.668;2023-06-24T00:36:03;16.97;;;14.40;;
5730;SDS011;2890;51.950;7.668;2023-06-24T00:38:33;15.20;;;13.90;;
5730;SDS011;2890;51.950;7.668;2023-06-24T00:40:59;16.27;;;14.30;;
5730;SDS011;2890;51.950;7.668;2023-06-24T00:43:25;15.53;;;13.87;;
5730;SDS011;2890;51.950;7.668;2023-06-24T00:45:52;17.07;;;14.10;;
5730;SDS011;2890;51.950;7.668;2023-06-24T00:48:20;18.23;;;13.27;;
5730;SDS011;2890;51.950;7.668;2023-06-24T00:50:47;14.43;;;13.20;;
5730;SDS011;2890;51.950;7.668;2023-06-24T00:53:14;14.60;;;13.27;;
5730;SDS011;2890;51.950;7.668;2023-06-24T00:55:43;16.57;;;14.97;;
5730;SDS011;2890;51.950;7.668;2023-06-24T00:58:10;18.33;;;15.30;;
5730;SDS011;2890;51.950;7.668;2023-06-24T01:00:40;18.13;;;16.27;;
5730;SDS011;2890;51.950;7.668;2023-06-24T01:03:07;19.10;;;16.90;;
5730;SDS011;2890;51.950;7.668;2023-06-24T01:05:35;19.17;;;17.20;;
5730;SDS011;2890;51.950;7.668;2023-06-24T01:08:02;17.70;;;15.87;;
5730;SDS011;2890;51.950;7.668;2023-06-24T01:10:28;16.43;;;14.77;;
5730;SDS011;2890;51.950;7.668;2023-06-24T01:12:56;16.80;;;14.77;;
5730;SDS011;2890;51.950;7.668;2023-06-24T01:15:23;15.90;;;14.30;;
5730;SDS011;2890;51.950;7.668;2023-06-24T01:17:55;15.43;;;13.93;;
5730;SDS011;2890;51.950;7.668;2023-06-24T01:20:25;15.37;;;13.97;;
5730;SDS011;2890;51.950;7.668;2023-06-24T01:23:20;16.40;;;14.17;;
5730;SDS011;2890;51.950;7.668;2023-06-24T01:26:20;14.30;;;12.90;;
5730;SDS011;2890;51.950;7.668;2023-06-24T01:31:51;15.17;;;13.87;;
5730;SDS011;2890;51.950;7.668;2023-06-24T01:34:22;15.87;;;14.20;;
5730;SDS011;2890;51.950;7.668;2023-06-24T01:36:55;16.30;;;14.50;;
5730;SDS011;2890;51.950;7.668;2023-06-24T01:39:26;15.00;;;13.40;;
5730;SDS011;2890;51.950;7.668;2023-06-24T01:41:56;14.27;;;12.80;;
5730;SDS011;2890;51.950;7.668;2023-06-24T01:44:25;16.33;;;14.13;;
5730;SDS011;2890;51.950;7.668;2023-06-24T01:46:55;14.73;;;13.27;;
5730;SDS011;2890;51.950;7.668;2023-06-24T01:49:24;15.27;;;13.53;;
5730;SDS011;2890;51.950;7.668;2023-06-24T01:51:54;15.73;;;14.37;;
5730;SDS011;2890;51.950;7.668;2023-06-24T01:54:22;15.30;;;13.87;;
5730;SDS011;2890;51.950;7.668;2023-06-24T01:56:50;15.27;;;14.07;;
5730;SDS011;2890;51.950;7.668;2023-06-24T01:59:16;15.47;;;13.93;;
5730;SDS011;2890;51.950;7.668;2023-06-24T02:01:45;16.23;;;14.73;;
5730;SDS011;2890;51.950;7.668;2023-06-24T02:04:13;17.57;;;15.80;;
5730;SDS011;2890;51.950;7.668;2023-06-24T02:06:41;17.27;;;15.60;;
5730;SDS011;2890;51.950;7.668;2023-06-24T02:09:08;16.80;;;15.30;;
5730;SDS011;2890;51.950;7.668;2023-06-24T02:11:35;17.63;;;15.90;;
5730;SDS011;2890;51.950;7.668;2023-06-24T02:14:03;16.87;;;15.40;;
5730;SDS011;2890;51.950;7.668;2023-06-24T02:16:30;15.87;;;14.27;;
5730;SDS011;2890;51.950;7.668;2023-06-24T02:18:58;16.30;;;14.60;;
5730;SDS011;2890;51.950;7.668;2023-06-24T02:21:28;14.43;;;13.13;;
5730;SDS011;2890;51.950;7.668;2023-06-24T02:23:55;15.43;;;14.10;;
5730;SDS011;2890;51.950;7.668;2023-06-24T02:26:22;14.60;;;13.40;;
5730;SDS011;2890;51.950;7.668;2023-06-24T02:28:50;15.07;;;13.70;;
5730;SDS011;2890;51.950;7.668;2023-06-24T02:31:17;14.80;;;13.30;;
5730;SDS011;2890;51.950;7.668;2023-06-24T02:33:44;13.73;;;12.37;;
5730;SDS011;2890;51.950;7.668;2023-06-24T02:36:11;14.20;;;12.77;;
5730;SDS011;2890;51.950;7.668;2023-06-24T02:38:38;14.40;;;13.00;;
5730;SDS011;2890;51.950;7.668;2023-06-24T02:41:05;13.37;;;12.10;;
5730;SDS011;2890;51.950;7.668;2023-06-24T02:43:32;14.53;;;11.43;;
5730;SDS011;2890;51.950;7.668;2023-06-24T02:46:00;15.37;;;13.90;;
5730;SDS011;2890;51.950;7.668;2023-06-24T02:48:28;13.30;;;12.30;;
5730;SDS011;2890;51.950;7.668;2023-06-24T02:50:54;14.50;;;13.30;;
5730;SDS011;2890;51.950;7.668;2023-06-24T02:53:21;14.70;;;13.30;;
5730;SDS011;2890;51.950;7.668;2023-06-24T02:55:49;13.47;;;12.47;;
5730;SDS011;2890;51.950;7.668;2023-06-24T02:58:15;14.40;;;13.20;;
5730;SDS011;2890;51.950;7.668;2023-06-24T03:00:42;12.33;;;11.33;;
5730;SDS011;2890;51.950;7.668;2023-06-24T03:03:08;14.50;;;13.27;;
5730;SDS011;2890;51.950;7.668;2023-06-24T03:05:35;14.87;;;13.60;;
5730;SDS011;2890;51.950;7.668;2023-06-24T03:08:02;14.00;;;12.60;;
5730;SDS011;2890;51.950;7.668;2023-06-24T03:10:29;15.20;;;13.63;;
5730;SDS011;2890;51.950;7.668;2023-06-24T03:12:57;15.73;;;13.63;;
5730;SDS011;2890;51.950;7.668;2023-06-24T03:15:24;14.97;;;13.47;;
5730;SDS011;2890;51.950;7.668;2023-06-24T03:17:50;13.47;;;12.17;;
5730;SDS011;2890;51.950;7.668;2023-06-24T03:20:17;15.37;;;13.53;;
5730;SDS011;2890;51.950;7.668;2023-06-24T03:22:43;15.80;;;14.27;;
5730;SDS011;2890;51.950;7.668;2023-06-24T03:25:10;13.87;;;12.70;;
5730;SDS011;2890;51.950;7.668;2023-06-24T03:27:36;14.33;;;12.70;;
5730;SDS011;2890;51.950;7.668;2023-06-24T03:30:05;16.00;;;14.60;;
5730;SDS011;2890;51.950;7.668;2023-06-24T03:32:32;14.77;;;13.23;;
5730;SDS011;2890;51.950;7.668;2023-06-24T03:35:00;16.57;;;14.07;;
5730;SDS011;2890;51.950;7.668;2023-06-24T03:37:26;13.70;;;12.60;;
5730;SDS011;2890;51.950;7.668;2023-06-24T03:39:53;15.00;;;13.63;;
5730;SDS011;2890;51.950;7.668;2023-06-24T03:42:19;15.90;;;14.40;;
5730;SDS011;2890;51.950;7.668;2023-06-24T03:44:45;13.90;;;12.80;;
5730;SDS011;2890;51.950;7.668;2023-06-24T03:47:13;15.70;;;14.30;;
5730;SDS011;2890;51.950;7.668;2023-06-24T03:49:40;14.70;;;13.40;;
5730;SDS011;2890;51.950;7.668;2023-06-24T03:52:07;15.33;;;13.83;;
5730;SDS011;2890;51.950;7.668;2023-06-24T03:54:34;14.90;;;13.50;;
5730;SDS011;2890;51.950;7.668;2023-06-24T03:57:00;16.60;;;15.10;;
5730;SDS011;2890;51.950;7.668;2023-06-24T03:59:26;16.33;;;14.67;;
5730;SDS011;2890;51.950;7.668;2023-06-24T04:01:53;15.67;;;14.30;;
5730;SDS011;2890;51.950;7.668;2023-06-24T04:04:21;14.97;;;13.70;;
5730;SDS011;2890;51.950;7.668;2023-06-24T04:06:48;14.07;;;12.83;;
5730;SDS011;2890;51.950;7.668;2023-06-24T04:09:14;14.93;;;13.60;;
5730;SDS011;2890;51.950;7.668;2023-06-24T04:11:41;14.17;;;12.93;;
5730;SDS011;2890;51.950;7.668;2023-06-24T04:14:07;14.30;;;12.73;;
5730;SDS011;2890;51.950;7.668;2023-06-24T04:16:34;15.00;;;13.70;;
5730;SDS011;2890;51.950;7.668;2023-06-24T04:19:01;14.90;;;13.53;;
5730;SDS011;2890;51.950;7.668;2023-06-24T04:21:29;15.27;;;13.83;;
5730;SDS011;2890;51.950;7.668;2023-06-24T04:23:55;15.70;;;14.30;;
5730;SDS011;2890;51.950;7.668;2023-06-24T04:26:22;14.67;;;13.47;;
5730;SDS011;2890;51.950;7.668;2023-06-24T04:28:48;16.70;;;15.00;;
5730;SDS011;2890;51.950;7.668;2023-06-24T04:31:15;19.97;;;14.17;;
5730;SDS011;2890;51.950;7.668;2023-06-24T04:33:42;15.30;;;13.90;;
5730;SDS011;2890;51.950;7.668;2023-06-24T04:36:08;15.60;;;14.20;;
5730;SDS011;2890;51.950;7.668;2023-06-24T04:38:36;15.20;;;13.80;;
5730;SDS011;2890;51.950;7.668;2023-06-24T04:41:02;17.70;;;15.77;;
5730;SDS011;2890;51.950;7.668;2023-06-24T04:43:29;16.60;;;15.20;;
5730;SDS011;2890;51.950;7.668;2023-06-24T04:45:55;15.17;;;13.63;;
5730;SDS011;2890;51.950;7.668;2023-06-24T04:48:22;15.60;;;14.10;;
5730;SDS011;2890;51.950;7.668;2023-06-24T04:50:49;14.73;;;12.43;;
5730;SDS011;2890;51.950;7.668;2023-06-24T04:53:15;13.93;;;12.63;;
5730;SDS011;2890;51.950;7.668;2023-06-24T04:55:44;14.27;;;12.93;;
5730;SDS011;2890;51.950;7.668;2023-06-24T04:58:10;14.90;;;13.50;;
5730;SDS011;2890;51.950;7.668;2023-06-24T05:00:36;15.80;;;14.13;;
5730;SDS011;2890;51.950;7.668;2023-06-24T05:03:03;15.67;;;14.23;;
5730;SDS011;2890;51.950;7.668;2023-06-24T05:05:29;16.03;;;14.00;;
5730;SDS011;2890;51.950;7.668;2023-06-24T05:07:56;16.10;;;14.60;;
5730;SDS011;2890;51.950;7.668;2023-06-24T05:10:22;15.13;;;13.47;;
5730;SDS011;2890;51.950;7.668;2023-06-24T05:12:50;15.80;;;14.23;;
5730;SDS011;2890;51.950;7.668;2023-06-24T05:15:17;20.13;;;14.13;;
5730;SDS011;2890;51.950;7.668;2023-06-24T05:17:43;16.50;;;14.90;;
5730;SDS011;2890;51.950;7.668;2023-06-24T05:20:10;15.87;;;14.27;;
5730;SDS011;2890;51.950;7.668;2023-06-24T05:22:37;14.87;;;13.43;;
5730;SDS011;2890;51.950;7.668;2023-06-24T05:25:04;16.77;;;15.07;;
5730;SDS011;2890;51.950;7.668;2023-06-24T05:27:32;16.27;;;13.53;;
5730;SDS011;2890;51.950;7.668;2023-06-24T05:30:00;15.93;;;14.30;;
5730;SDS011;2890;51.950;7.668;2023-06-24T05:32:27;18.20;;;16.07;;
5730;SDS011;2890;51.950;7.668;2023-06-24T05:34:54;16.20;;;14.60;;
5730;SDS011;2890;51.950;7.668;2023-06-24T05:37:20;15.53;;;14.13;;
5730;SDS011;2890;51.950;7.668;2023-06-24T05:39:47;18.20;;;15.43;;
5730;SDS011;2890;51.950;7.668;2023-06-24T05:42:13;17.87;;;14.73;;
5730;SDS011;2890;51.950;7.668;2023-06-24T05:44:40;17.80;;;13.90;;
5730;SDS011;2890;51.950;7.668;2023-06-24T05:47:08;15.67;;;13.90;;
5730;SDS011;2890;51.950;7.668;2023-06-24T05:49:34;14.73;;;13.40;;
5730;SDS011;2890;51.950;7.668;2023-06-24T05:52:00;17.87;;;14.87;;
5730;SDS011;2890;51.950;7.668;2023-06-24T05:54:27;14.97;;;13.43;;
5730;SDS011;2890;51.950;7.668;2023-06-24T05:56:54;16.73;;;14.50;;
5730;SDS011;2890;51.950;7.668;2023-06-24T05:59:20;15.47;;;13.10;;
5730;SDS011;2890;51.950;7.668;2023-06-24T06:01:46;14.50;;;12.80;;
5730;SDS011;2890;51.950;7.668;2023-06-24T06:04:14;14.47;;;13.07;;
5730;SDS011;2890;51.950;7.668;2023-06-24T06:06:41;22.87;;;13.50;;
5730;SDS011;2890;51.950;7.668;2023-06-24T06:09:07;15.57;;;13.20;;
5730;SDS011;2890;51.950;7.668;2023-06-24T06:11:34;13.47;;;12.23;;
5730;SDS011;2890;51.950;7.668;2023-06-24T06:14:00;13.97;;;12.70;;
5730;SDS011;2890;51.950;7.668;2023-06-24T06:16:27;17.03;;;13.33;;
5730;SDS011;2890;51.950;7.668;2023-06-24T06:18:54;16.00;;;12.70;;
5730;SDS011;2890;51.950;7.668;2023-06-24T06:21:22;15.40;;;13.30;;
5730;SDS011;2890;51.950;7.668;2023-06-24T06:23:50;15.33;;;13.97;;
5730;SDS011;2890;51.950;7.668;2023-06-24T06:26:16;14.00;;;12.20;;
5730;SDS011;2890;51.950;7.668;2023-06-24T06:28:42;13.33;;;12.03;;
5730;SDS011;2890;51.950;7.668;2023-06-24T06:31:09;17.23;;;12.20;;
5730;SDS011;2890;51.950;7.668;2023-06-24T06:33:35;13.30;;;12.17;;
5730;SDS011;2890;51.950;7.668;2023-06-24T06:36:02;12.80;;;11.70;;
5730;SDS011;2890;51.950;7.668;2023-06-24T06:38:31;13.20;;;11.90;;
5730;SDS011;2890;51.950;7.668;2023-06-24T06:40:58;16.70;;;12.87;;
5730;SDS011;2890;51.950;7.668;2023-06-24T06:43:25;12.63;;;11.57;;
5730;SDS011;2890;51.950;7.668;2023-06-24T06:45:51;12.87;;;11.53;;
5730;SDS011;2890;51.950;7.668;2023-06-24T06:48:18;13.27;;;11.83;;
5730;SDS011;2890;51.950;7.668;2023-06-24T06:50:44;12.20;;;11.03;;
5730;SDS011;2890;51.950;7.668;2023-06-24T06:53:14;12.33;;;11.23;;
5730;SDS011;2890;51.950;7.668;2023-06-24T06:55:42;12.07;;;11.10;;
5730;SDS011;2890;51.950;7.668;2023-06-24T06:58:09;11.87;;;10.83;;
5730;SDS011;2890;51.950;7.668;2023-06-24T07:00:35;12.33;;;11.13;;
5730;SDS011;2890;51.950;7.668;2023-06-24T07:03:02;11.93;;;10.83;;
5730;SDS011;2890;51.950;7.668;2023-06-24T07:05:29;11.50;;;9.93;;
5730;SDS011;2890;51.950;7.668;2023-06-24T07:07:55;11.77;;;10.63;;
5730;SDS011;2890;51.950;7.668;2023-06-24T07:10:22;11.33;;;10.13;;
5730;SDS011;2890;51.950;7.668;2023-06-24T07:12:50;11.67;;;10.57;;
5730;SDS011;2890;51.950;7.668;2023-06-24T07:15:23;11.07;;;9.97;;
5730;SDS011;2890;51.950;7.668;2023-06-24T07:17:49;11.67;;;9.87;;
5730;SDS011;2890;51.950;7.668;2023-06-24T07:20:16;9.27;;;8.57;;
5730;SDS011;2890;51.950;7.668;2023-06-24T07:22:42;10.37;;;9.37;;
5730;SDS011;2890;51.950;7.668;2023-06-24T07:25:09;10.40;;;9.17;;
5730;SDS011;2890;51.950;7.668;2023-06-24T07:27:35;10.03;;;9.00;;
5730;SDS011;2890;51.950;7.668;2023-06-24T07:30:04;12.83;;;8.73;;
5730;SDS011;2890;51.950;7.668;2023-06-24T07:32:31;9.50;;;8.60;;
5730;SDS011;2890;51.950;7.668;2023-06-24T07:34:57;12.30;;;8.70;;
5730;SDS011;2890;51.950;7.668;2023-06-24T07:37:24;9.03;;;8.23;;
5730;SDS011;2890;51.950;7.668;2023-06-24T07:39:50;8.47;;;7.83;;
5730;SDS011;2890;51.950;7.668;2023-06-24T07:42:17;8.53;;;8.00;;
5730;SDS011;2890;51.950;7.668;2023-06-24T07:44:44;7.60;;;7.00;;
5730;SDS011;2890;51.950;7.668;2023-06-24T07:47:12;8.50;;;7.90;;
5730;SDS011;2890;51.950;7.668;2023-06-24T07:49:38;8.27;;;7.63;;
5730;SDS011;2890;51.950;7.668;2023-06-24T07:52:05;11.07;;;8.70;;
5730;SDS011;2890;51.950;7.668;2023-06-24T07:54:33;11.43;;;8.80;;
5730;SDS011;2890;51.950;7.668;2023-06-24T07:56:59;9.07;;;8.47;;
5730;SDS011;2890;51.950;7.668;2023-06-24T07:59:26;9.27;;;8.67;;
5730;SDS011;2890;51.950;7.668;2023-06-24T08:01:56;9.50;;;8.80;;
5730;SDS011;2890;51.950;7.668;2023-06-24T08:04:29;10.87;;;9.87;;
5730;SDS011;2890;51.950;7.668;2023-06-24T08:06:56;10.13;;;9.10;;
5730;SDS011;2890;51.950;7.668;2023-06-24T08:09:22;10.63;;;9.73;;
5730;SDS011;2890;51.950;7.668;2023-06-24T08:11:49;9.63;;;8.83;;
5730;SDS011;2890;51.950;7.668;2023-06-24T08:14:15;10.40;;;9.60;;
5730;SDS011;2890;51.950;7.668;2023-06-24T08:16:42;11.50;;;10.50;;
5730;SDS011;2890;51.950;7.668;2023-06-24T08:19:08;11.23;;;10.13;;
5730;SDS011;2890;51.950;7.668;2023-06-24T08:21:36;10.40;;;9.50;;
5730;SDS011;2890;51.950;7.668;2023-06-24T08:24:03;9.53;;;8.63;;
5730;SDS011;2890;51.950;7.668;2023-06-24T08:26:30;11.47;;;10.67;;
5730;SDS011;2890;51.950;7.668;2023-06-24T08:28:56;11.40;;;10.33;;
5730;SDS011;2890;51.950;7.668;2023-06-24T08:31:24;11.63;;;10.17;;
5730;SDS011;2890;51.950;7.668;2023-06-24T08:33:51;11.23;;;10.27;;
5730;SDS011;2890;51.950;7.668;2023-06-24T08:36:18;10.40;;;9.70;;
5730;SDS011;2890;51.950;7.668;2023-06-24T08:38:46;11.27;;;10.30;;
5730;SDS011;2890;51.950;7.668;2023-06-24T08:41:12;11.40;;;10.50;;
5730;SDS011;2890;51.950;7.668;2023-06-24T08:43:39;9.70;;;9.00;;
5730;SDS011;2890;51.950;7.668;2023-06-24T08:46:07;10.37;;;9.47;;
5730;SDS011;2890;51.950;7.668;2023-06-24T08:48:34;11.00;;;10.13;;
5730;SDS011;2890;51.950;7.668;2023-06-24T08:51:05;10.93;;;10.03;;
5730;SDS011;2890;51.950;7.668;2023-06-24T08:53:34;10.30;;;9.43;;
5730;SDS011;2890;51.950;7.668;2023-06-24T08:56:02;12.13;;;11.23;;
5730;SDS011;2890;51.950;7.668;2023-06-24T08:58:28;11.50;;;10.50;;
5730;SDS011;2890;51.950;7.668;2023-06-24T09:00:55;11.33;;;10.33;;
5730;SDS011;2890;51.950;7.668;2023-06-24T09:03:22;10.37;;;9.40;;
5730;SDS011;2890;51.950;7.668;2023-06-24T09:05:48;10.70;;;9.90;;
5730;SDS011;2890;51.950;7.668;2023-06-24T09:08:15;10.53;;;9.73;;
5730;SDS011;2890;51.950;7.668;2023-06-24T09:10:42;10.00;;;9.20;;
5730;SDS011;2890;51.950;7.668;2023-06-24T09:13:09;8.37;;;7.77;;
5730;SDS011;2890;51.950;7.668;2023-06-24T09:15:36;9.23;;;7.50;;
5730;SDS011;2890;51.950;7.668;2023-06-24T09:18:04;11.40;;;8.50;;
5730;SDS011;2890;51.950;7.668;2023-06-24T09:20:31;10.07;;;9.27;;
5730;SDS011;2890;51.950;7.668;2023-06-24T09:23:04;9.90;;;9.00;;
5730;SDS011;2890;51.950;7.668;2023-06-24T09:25:31;8.47;;;7.70;;
5730;SDS011;2890;51.950;7.668;2023-06-24T09:27:58;8.63;;;7.87;;
5730;SDS011;2890;51.950;7.668;2023-06-24T09:30:26;7.93;;;7.33;;
5730;SDS011;2890;51.950;7.668;2023-06-24T09:32:53;8.03;;;7.53;;
5730;SDS011;2890;51.950;7.668;2023-06-24T09:35:20;11.10;;;10.10;;
5730;SDS011;2890;51.950;7.668;2023-06-24T09:37:51;10.97;;;10.27;;
5730;SDS011;2890;51.950;7.668;2023-06-24T09:40:17;10.40;;;9.50;;
5730;SDS011;2890;51.950;7.668;2023-06-24T09:42:51;9.93;;;9.30;;
5730;SDS011;2890;51.950;7.668;2023-06-24T09:45:24;10.90;;;9.83;;
5730;SDS011;2890;51.950;7.668;2023-06-24T09:47:53;11.00;;;10.30;;
5730;SDS011;2890;51.950;7.668;2023-06-24T09:50:19;9.97;;;9.27;;
5730;SDS011;2890;51.950;7.668;2023-06-24T09:52:46;11.27;;;10.47;;
5730;SDS011;2890;51.950;7.668;2023-06-24T09:55:14;10.93;;;10.30;;
5730;SDS011;2890;51.950;7.668;2023-06-24T09:57:44;12.13;;;11.23;;
5730;SDS011;2890;51.950;7.668;2023-06-24T10:00:11;10.57;;;9.87;;
5730;SDS011;2890;51.950;7.668;2023-06-24T10:02:41;10.03;;;9.13;;
5730;SDS011;2890;51.950;7.668;2023-06-24T10:05:08;10.87;;;10.17;;
5730;SDS011;2890;51.950;7.668;2023-06-24T10:07:35;11.17;;;10.07;;
5730;SDS011;2890;51.950;7.668;2023-06-24T10:10:03;8.83;;;8.07;;
5730;SDS011;2890;51.950;7.668;2023-06-24T10:12:30;9.00;;;8.10;;
5730;SDS011;2890;51.950;7.668;2023-06-24T10:14:57;9.47;;;8.83;;
5730;SDS011;2890;51.950;7.668;2023-06-24T10:17:23;10.67;;;9.77;;
5730;SDS011;2890;51.950;7.668;2023-06-24T10:19:52;9.63;;;8.93;;
5730;SDS011;2890;51.950;7.668;2023-06-24T10:22:21;11.20;;;10.50;;
5730;SDS011;2890;51.950;7.668;2023-06-24T10:24:48;12.20;;;11.20;;
5730;SDS011;2890;51.950;7.668;2023-06-24T10:27:15;10.63;;;9.80;;
5730;SDS011;2890;51.950;7.668;2023-06-24T10:29:44;11.07;;;9.90;;
5730;SDS011;2890;51.950;7.668;2023-06-24T10:32:11;15.93;;;9.50;;
5730;SDS011;2890;51.950;7.668;2023-06-24T10:34:41;9.60;;;8.63;;
5730;SDS011;2890;51.950;7.668;2023-06-24T10:37:10;9.73;;;8.93;;
5730;SDS011;2890;51.950;7.668;2023-06-24T10:39:39;10.17;;;9.10;;
5730;SDS011;2890;51.950;7.668;2023-06-24T10:42:28;9.00;;;8.37;;
5730;SDS011;2890;51.950;7.668;2023-06-24T10:44:59;9.23;;;8.33;;
5730;SDS011;2890;51.950;7.668;2023-06-24T10:47:27;7.93;;;7.23;;
5730;SDS011;2890;51.950;7.668;2023-06-24T10:49:54;8.07;;;7.47;;
5730;SDS011;2890;51.950;7.668;2023-06-24T10:52:22;12.10;;;10.70;;
5730;SDS011;2890;51.950;7.668;2023-06-24T10:54:49;10.27;;;9.47;;
5730;SDS011;2890;51.950;7.668;2023-06-24T10:57:20;8.30;;;7.80;;
5730;SDS011;2890;51.950;7.668;2023-06-24T10:59:47;11.40;;;8.33;;
5730;SDS011;2890;51.950;7.668;2023-06-24T11:02:15;7.90;;;7.40;;
5730;SDS011;2890;51.950;7.668;2023-06-24T11:04:42;8.43;;;7.67;;
5730;SDS011;2890;51.950;7.668;2023-06-24T11:07:09;9.27;;;8.57;;
5730;SDS011;2890;51.950;7.668;2023-06-24T11:09:37;8.40;;;7.90;;
5730;SDS011;2890;51.950;7.668;2023-06-24T11:12:04;9.87;;;8.87;;
5730;SDS011;2890;51.950;7.668;2023-06-24T11:14:32;8.87;;;8.07;;
5730;SDS011;2890;51.950;7.668;2023-06-24T11:17:00;8.67;;;8.17;;
5730;SDS011;2890;51.950;7.668;2023-06-24T11:19:27;8.70;;;8.00;;
5730;SDS011;2890;51.950;7.668;2023-06-24T11:21:53;8.70;;;8.10;;
5730;SDS011;2890;51.950;7.668;2023-06-24T11:24:20;9.00;;;8.40;;
5730;SDS011;2890;51.950;7.668;2023-06-24T11:26:48;8.10;;;7.47;;
5730;SDS011;2890;51.950;7.668;2023-06-24T11:29:14;8.50;;;7.87;;
5730;SDS011;2890;51.950;7.668;2023-06-24T11:31:41;10.60;;;9.87;;
5730;SDS011;2890;51.950;7.668;2023-06-24T11:34:08;11.83;;;10.47;;
5730;SDS011;2890;51.950;7.668;2023-06-24T11:36:35;11.13;;;10.30;;
5730;SDS011;2890;51.950;7.668;2023-06-24T11:39:02;9.33;;;8.63;;
5730;SDS011;2890;51.950;7.668;2023-06-24T11:41:29;10.03;;;9.23;;
5730;SDS011;2890;51.950;7.668;2023-06-24T11:43:58;8.30;;;7.60;;
5730;SDS011;2890;51.950;7.668;2023-06-24T11:46:25;6.87;;;6.47;;
5730;SDS011;2890;51.950;7.668;2023-06-24T11:48:52;7.77;;;7.27;;
5730;SDS011;2890;51.950;7.668;2023-06-24T11:51:18;7.40;;;6.90;;
5730;SDS011;2890;51.950;7.668;2023-06-24T11:53:45;8.63;;;6.80;;
5730;SDS011;2890;51.950;7.668;2023-06-24T11:56:12;7.73;;;7.13;;
5730;SDS011;2890;51.950;7.668;2023-06-24T11:58:39;6.60;;;6.13;;
5730;SDS011;2890;51.950;7.668;2023-06-24T12:01:07;7.90;;;7.33;;
5730;SDS011;2890;51.950;7.668;2023-06-24T12:03:34;7.50;;;6.63;;
5730;SDS011;2890;51.950;7.668;2023-06-24T12:06:00;8.97;;;8.07;;
5730;SDS011;2890;51.950;7.668;2023-06-24T12:08:27;7.87;;;7.40;;
5730;SDS011;2890;51.950;7.668;2023-06-24T12:10:53;7.33;;;6.63;;
5730;SDS011;2890;51.950;7.668;2023-06-24T12:13:20;7.10;;;6.60;;
5730;SDS011;2890;51.950;7.668;2023-06-24T12:15:46;7.47;;;6.53;;
5730;SDS011;2890;51.950;7.668;2023-06-24T12:18:14;7.07;;;6.57;;
5730;SDS011;2890;51.950;7.668;2023-06-24T12:20:41;6.30;;;5.70;;
5730;SDS011;2890;51.950;7.668;2023-06-24T12:23:08;8.33;;;5.73;;
5730;SDS011;2890;51.950;7.668;2023-06-24T12:25:35;7.30;;;6.80;;
5730;SDS011;2890;51.950;7.668;2023-06-24T12:28:01;6.20;;;5.80;;
5730;SDS011;2890;51.950;7.668;2023-06-24T12:30:28;6.60;;;6.20;;
5730;SDS011;2890;51.950;7.668;2023-06-24T12:32:54;5.70;;;5.30;;
5730;SDS011;2890;51.950;7.668;2023-06-24T12:35:23;6.07;;;5.63;;
5730;SDS011;2890;51.950;7.668;2023-06-24T12:37:50;5.23;;;4.83;;
5730;SDS011;2890;51.950;7.668;2023-06-24T12:40:17;5.03;;;4.73;;
5730;SDS011;2890;51.950;7.668;2023-06-24T12:42:44;5.17;;;4.80;;
5730;SDS011;2890;51.950;7.668;2023-06-24T12:45:11;5.03;;;4.73;;
5730;SDS011;2890;51.950;7.668;2023-06-24T12:47:38;5.60;;;5.20;;
5730;SDS011;2890;51.950;7.668;2023-06-24T12:50:05;5.97;;;5.33;;
5730;SDS011;2890;51.950;7.668;2023-06-24T12:52:34;6.30;;;5.80;;
5730;SDS011;2890;51.950;7.668;2023-06-24T12:55:01;7.07;;;6.50;;
5730;SDS011;2890;51.950;7.668;2023-06-24T12:57:29;5.97;;;5.50;;
5730;SDS011;2890;51.950;7.668;2023-06-24T12:59:56;6.03;;;5.57;;
5730;SDS011;2890;51.950;7.668;2023-06-24T13:02:22;5.33;;;4.93;;
5730;SDS011;2890;51.950;7.668;2023-06-24T13:04:49;5.70;;;5.30;;
5730;SDS011;2890;51.950;7.668;2023-06-24T13:07:16;6.00;;;5.50;;
5730;SDS011;2890;51.950;7.668;2023-06-24T13:09:44;6.03;;;5.30;;
5730;SDS011;2890;51.950;7.668;2023-06-24T13:12:10;5.20;;;4.90;;
5730;SDS011;2890;51.950;7.668;2023-06-24T13:14:37;6.03;;;5.53;;
5730;SDS011;2890;51.950;7.668;2023-06-24T13:17:03;5.30;;;4.90;;
5730;SDS011;2890;51.950;7.668;2023-06-24T13:19:30;5.60;;;5.20;;
5730;SDS011;2890;51.950;7.668;2023-06-24T13:21:57;4.87;;;4.57;;
5730;SDS011;2890;51.950;7.668;2023-06-24T13:24:24;5.50;;;5.10;;
5730;SDS011;2890;51.950;7.668;2023-06-24T13:26:52;5.40;;;5.10;;
5730;SDS011;2890;51.950;7.668;2023-06-24T13:29:19;4.90;;;4.60;;
5730;SDS011;2890;51.950;7.668;2023-06-24T13:31:46;4.80;;;4.40;;
5730;SDS011;2890;51.950;7.668;2023-06-24T13:34:12;5.10;;;4.80;;
5730;SDS011;2890;51.950;7.668;2023-06-24T13:36:39;5.00;;;4.60;;
5730;SDS011;2890;51.950;7.668;2023-06-24T13:39:06;5.37;;;5.07;;
5730;SDS011;2890;51.950;7.668;2023-06-24T13:41:34;5.93;;;5.53;;
5730;SDS011;2890;51.950;7.668;2023-06-24T13:44:02;5.50;;;5.10;;
5730;SDS011;2890;51.950;7.668;2023-06-24T13:46:29;5.10;;;4.70;;
5730;SDS011;2890;51.950;7.668;2023-06-24T13:48:56;5.17;;;4.67;;
5730;SDS011;2890;51.950;7.668;2023-06-24T13:51:23;5.90;;;5.17;;
5730;SDS011;2890;51.950;7.668;2023-06-24T13:53:50;5.47;;;5.00;;
5730;SDS011;2890;51.950;7.668;2023-06-24T13:56:19;5.47;;;5.00;;
5730;SDS011;2890;51.950;7.668;2023-06-24T13:58:46;5.53;;;5.20;;
5730;SDS011;2890;51.950;7.668;2023-06-24T14:01:15;6.40;;;5.83;;
5730;SDS011;2890;51.950;7.668;2023-06-24T14:03:42;5.53;;;5.17;;
5730;SDS011;2890;51.950;7.668;2023-06-24T14:06:09;5.70;;;5.30;;
5730;SDS011;2890;51.950;7.668;2023-06-24T14:08:36;5.83;;;5.33;;
5730;SDS011;2890;51.950;7.668;2023-06-24T14:11:02;4.90;;;4.60;;
5730;SDS011;2890;51.950;7.668;2023-06-24T14:13:29;4.40;;;4.10;;
5730;SDS011;2890;51.950;7.668;2023-06-24T14:15:56;4.37;;;3.97;;
5730;SDS011;2890;51.950;7.668;2023-06-24T14:18:24;4.40;;;4.10;;
5730;SDS011;2890;51.950;7.668;2023-06-24T14:20:51;3.77;;;3.57;;
5730;SDS011;2890;51.950;7.668;2023-06-24T14:23:17;4.07;;;3.77;;
5730;SDS011;2890;51.950;7.668;2023-06-24T14:25:44;4.13;;;3.73;;
5730;SDS011;2890;51.950;7.668;2023-06-24T14:28:10;4.17;;;3.87;;
5730;SDS011;2890;51.950;7.668;2023-06-24T14:30:37;4.17;;;3.87;;
5730;SDS011;2890;51.950;7.668;2023-06-24T14:33:03;4.03;;;3.80;;
5730;SDS011;2890;51.950;7.668;2023-06-24T14:35:31;4.00;;;3.70;;
5730;SDS011;2890;51.950;7.668;2023-06-24T14:37:58;4.23;;;3.93;;
5730;SDS011;2890;51.950;7.668;2023-06-24T14:40:24;4.10;;;3.80;;
5730;SDS011;2890;51.950;7.668;2023-06-24T14:42:51;4.43;;;4.03;;
5730;SDS011;2890;51.950;7.668;2023-06-24T14:45:17;4.00;;;3.70;;
5730;SDS011;2890;51.950;7.668;2023-06-24T14:47:44;4.00;;;3.57;;
5730;SDS011;2890;51.950;7.668;2023-06-24T14:50:10;5.50;;;3.93;;
5730;SDS011;2890;51.950;7.668;2023-06-24T14:52:38;3.70;;;3.40;;
5730;SDS011;2890;51.950;7.668;2023-06-24T14:55:05;3.97;;;3.67;;
5730;SDS011;2890;51.950;7.668;2023-06-24T14:57:32;3.37;;;3.17;;
5730;SDS011;2890;51.950;7.668;2023-06-24T14:59:58;3.63;;;3.33;;
5730;SDS011;2890;51.950;7.668;2023-06-24T15:02:25;4.00;;;3.70;;